sensor_id;sensor_type;location;lat;lon;timestamp;pressure;altitude;pressure_sealevel;temperature;humidity
74343;BME280;62767;50.300;8.070;2024-02-04T00:02:06;100786.34;;;17.79;40.98
74343;BME280;62767;50.300;8.070;2024-02-04T00:04:33;100782.00;;;17.78;41.03
74343;BME280;62767;50.300;8.070;2024-02-04T00:06:59;100781.19;;;17.77;41.13
74343;BME280;62767;50.300;8.070;2024-02-04T00:09:25;100786.44;;;17.77;41.07
74343;BME280;62767;50.300;8.070;2024-02-04T00:11:53;100789.06;;;17.77;41.01
74343;BME280;62767;50.300;8.070;2024-02-04T00:14:18;100777.69;;;17.77;41.13
74343;BME280;62767;50.300;8.070;2024-02-04T00:16:44;100773.38;;;17.76;41.05
74343;BME280;62767;50.300;8.070;2024-02-04T00:19:09;100777.69;;;17.77;41.03
74343;BME280;62767;50.300;8.070;2024-02-04T00:21:35;100768.13;;;17.76;41.17
74343;BME280;62767;50.300;8.070;2024-02-04T00:24:00;100765.47;;;17.76;41.02
74343;BME280;62767;50.300;8.070;2024-02-04T00:26:26;100753.25;;;17.75;41.14
74343;BME280;62767;50.300;8.070;2024-02-04T00:28:51;100748.84;;;17.75;41.07
74343;BME280;62767;50.300;8.070;2024-02-04T00:31:17;100742.63;;;17.76;41.14
74343;BME280;62767;50.300;8.070;2024-02-04T00:33:42;100745.38;;;17.75;41.07
74343;BME280;62767;50.300;8.070;2024-02-04T00:36:08;100741.88;;;17.74;41.04
74343;BME280;62767;50.300;8.070;2024-02-04T00:38:33;100746.22;;;17.75;41.23
74343;BME280;62767;50.300;8.070;2024-02-04T00:40:59;100736.63;;;17.74;41.18
74343;BME280;62767;50.300;8.070;2024-02-04T00:43:25;100742.03;;;17.73;41.10
74343;BME280;62767;50.300;8.070;2024-02-04T00:45:50;100744.53;;;17.74;41.07
74343;BME280;62767;50.300;8.070;2024-02-04T00:48:16;100746.34;;;17.74;41.12
74343;BME280;62767;50.300;8.070;2024-02-04T00:50:41;100753.25;;;17.75;41.14
74343;BME280;62767;50.300;8.070;2024-02-04T00:53:07;100751.72;;;17.72;41.27
74343;BME280;62767;50.300;8.070;2024-02-04T00:55:32;100744.66;;;17.73;41.17
74343;BME280;62767;50.300;8.070;2024-02-04T00:57:58;100743.81;;;17.72;41.04
74343;BME280;62767;50.300;8.070;2024-02-04T01:00:25;100745.59;;;17.72;41.11
74343;BME280;62767;50.300;8.070;2024-02-04T01:02:51;100757.94;;;17.71;41.10
74343;BME280;62767;50.300;8.070;2024-02-04T01:05:16;100753.50;;;17.72;41.21
74343;BME280;62767;50.300;8.070;2024-02-04T01:07:42;100764.97;;;17.70;41.00
74343;BME280;62767;50.300;8.070;2024-02-04T01:10:08;100772.78;;;17.72;41.12
74343;BME280;62767;50.300;8.070;2024-02-04T01:12:34;100773.72;;;17.71;41.10
74343;BME280;62767;50.300;8.070;2024-02-04T01:14:59;100779.00;;;17.71;41.12
74343;BME280;62767;50.300;8.070;2024-02-04T01:17:25;100784.25;;;17.71;41.06
74343;BME280;62767;50.300;8.070;2024-02-04T01:19:52;100779.00;;;17.71;41.00
74343;BME280;62767;50.300;8.070;2024-02-04T01:22:18;100779.94;;;17.70;41.17
74343;BME280;62767;50.300;8.070;2024-02-04T01:24:44;100787.84;;;17.70;41.06
74343;BME280;62767;50.300;8.070;2024-02-04T01:27:09;100787.94;;;17.68;41.24
74343;BME280;62767;50.300;8.070;2024-02-04T01:29:35;100791.31;;;17.70;41.06
74343;BME280;62767;50.300;8.070;2024-02-04T01:32:01;100788.78;;;17.69;41.16
74343;BME280;62767;50.300;8.070;2024-02-04T01:34:26;100787.09;;;17.68;41.20
74343;BME280;62767;50.300;8.070;2024-02-04T01:36:52;100783.66;;;17.67;41.16
74343;BME280;62767;50.300;8.070;2024-02-04T01:39:17;100781.81;;;17.68;41.11
74343;BME280;62767;50.300;8.070;2024-02-04T01:41:42;100781.81;;;17.68;41.07
74343;BME280;62767;50.300;8.070;2024-02-04T01:44:10;100781.03;;;17.67;41.12
74343;BME280;62767;50.300;8.070;2024-02-04T01:46:36;100770.50;;;17.67;40.59
74343;BME280;62767;50.300;8.070;2024-02-04T01:49:01;100778.38;;;17.67;41.12
74343;BME280;62767;50.300;8.070;2024-02-04T01:51:27;100780.19;;;17.67;41.01
74343;BME280;62767;50.300;8.070;2024-02-04T01:53:52;100768.81;;;17.66;41.07
74343;BME280;62767;50.300;8.070;2024-02-04T01:56:19;100760.91;;;17.66;41.16
74343;BME280;62767;50.300;8.070;2024-02-04T01:58:45;100753.94;;;17.65;41.06
74343;BME280;62767;50.300;8.070;2024-02-04T02:01:12;100757.44;;;17.66;41.03
74343;BME280;62767;50.300;8.070;2024-02-04T02:03:38;100758.38;;;17.65;40.99
74343;BME280;62767;50.300;8.070;2024-02-04T02:06:05;100766.28;;;17.65;41.11
74343;BME280;62767;50.300;8.070;2024-02-04T02:08:31;100767.97;;;17.66;41.24
74343;BME280;62767;50.300;8.070;2024-02-04T02:11:05;100768.91;;;17.65;41.15
74343;BME280;62767;50.300;8.070;2024-02-04T02:13:31;100761.97;;;17.64;41.01
74343;BME280;62767;50.300;8.070;2024-02-04T02:16:07;100754.06;;;17.64;40.99
74343;BME280;62767;50.300;8.070;2024-02-04T02:18:45;100753.13;;;17.65;41.17
74343;BME280;62767;50.300;8.070;2024-02-04T02:21:43;100745.31;;;17.63;41.15
74343;BME280;62767;50.300;8.070;2024-02-04T02:24:14;100735.63;;;17.64;41.21
74343;BME280;62767;50.300;8.070;2024-02-04T02:26:41;100741.84;;;17.63;41.17
74343;BME280;62767;50.300;8.070;2024-02-04T02:29:07;100742.69;;;17.63;41.04
74343;BME280;62767;50.300;8.070;2024-02-04T02:31:38;100728.69;;;17.63;41.23
74343;BME280;62767;50.300;8.070;2024-02-04T02:34:05;100730.47;;;17.62;41.17
74343;BME280;62767;50.300;8.070;2024-02-04T02:36:37;100717.31;;;17.62;41.01
74343;BME280;62767;50.300;8.070;2024-02-04T02:41:42;100714.69;;;17.62;41.13
74343;BME280;62767;50.300;8.070;2024-02-04T02:44:09;100711.22;;;17.62;41.12
74343;BME280;62767;50.300;8.070;2024-02-04T02:46:36;100716.50;;;17.62;40.95
74343;BME280;62767;50.300;8.070;2024-02-04T02:49:02;100705.22;;;17.60;41.08
74343;BME280;62767;50.300;8.070;2024-02-04T02:51:28;100695.53;;;17.60;41.07
74343;BME280;62767;50.300;8.070;2024-02-04T02:53:53;100699.03;;;17.61;41.21
74343;BME280;62767;50.300;8.070;2024-02-04T02:56:19;100691.19;;;17.59;41.31
74343;BME280;62767;50.300;8.070;2024-02-04T02:58:44;100693.81;;;17.59;41.19
74343;BME280;62767;50.300;8.070;2024-02-04T03:01:10;100699.09;;;17.59;41.11
74343;BME280;62767;50.300;8.070;2024-02-04T03:03:36;100700.88;;;17.59;41.13
74343;BME280;62767;50.300;8.070;2024-02-04T03:06:02;100695.63;;;17.59;41.11
74343;BME280;62767;50.300;8.070;2024-02-04T03:08:28;100695.63;;;17.59;41.20
74343;BME280;62767;50.300;8.070;2024-02-04T03:10:53;100698.25;;;17.59;41.16
74343;BME280;62767;50.300;8.070;2024-02-04T03:13:19;100700.88;;;17.59;41.06
74343;BME280;62767;50.300;8.070;2024-02-04T03:15:44;100692.16;;;17.58;41.05
74343;BME280;62767;50.300;8.070;2024-02-04T03:18:10;100689.63;;;17.57;41.19
74343;BME280;62767;50.300;8.070;2024-02-04T03:20:36;100687.81;;;17.57;41.18
74343;BME280;62767;50.300;8.070;2024-02-04T03:23:02;100687.81;;;17.57;41.21
74343;BME280;62767;50.300;8.070;2024-02-04T03:25:27;100675.66;;;17.56;41.12
74343;BME280;62767;50.300;8.070;2024-02-04T03:27:55;100676.47;;;17.57;41.14
74343;BME280;62767;50.300;8.070;2024-02-04T03:30:21;100679.09;;;17.57;41.03
74343;BME280;62767;50.300;8.070;2024-02-04T03:32:47;100682.69;;;17.56;41.16
74343;BME280;62767;50.300;8.070;2024-02-04T03:35:12;100682.69;;;17.56;41.27
74343;BME280;62767;50.300;8.070;2024-02-04T03:37:38;100692.38;;;17.55;41.01
74343;BME280;62767;50.300;8.070;2024-02-04T03:40:04;100694.19;;;17.55;41.15
74343;BME280;62767;50.300;8.070;2024-02-04T03:42:30;100688.91;;;17.55;41.17
74343;BME280;62767;50.300;8.070;2024-02-04T03:44:56;100704.69;;;17.55;41.18
74343;BME280;62767;50.300;8.070;2024-02-04T03:47:21;100703.88;;;17.54;41.17
74343;BME280;62767;50.300;8.070;2024-02-04T03:49:47;100709.97;;;17.55;41.12
74343;BME280;62767;50.300;8.070;2024-02-04T03:52:12;100698.59;;;17.54;41.13
74343;BME280;62767;50.300;8.070;2024-02-04T03:54:38;100700.38;;;17.54;41.13
74343;BME280;62767;50.300;8.070;2024-02-04T03:57:04;100699.53;;;17.53;41.21
74343;BME280;62767;50.300;8.070;2024-02-04T03:59:30;100696.91;;;17.53;41.24
74343;BME280;62767;50.300;8.070;2024-02-04T04:01:55;100690.81;;;17.53;41.09
74343;BME280;62767;50.300;8.070;2024-02-04T04:04:23;100693.44;;;17.53;41.21
74343;BME280;62767;50.300;8.070;2024-02-04T04:06:48;100685.53;;;17.53;41.15
74343;BME280;62767;50.300;8.070;2024-02-04T04:09:14;100686.50;;;17.52;41.20
74343;BME280;62767;50.300;8.070;2024-02-04T04:11:40;100683.03;;;17.51;41.11
74343;BME280;62767;50.300;8.070;2024-02-04T04:14:06;100679.53;;;17.51;41.12
74343;BME280;62767;50.300;8.070;2024-02-04T04:16:31;100681.38;;;17.50;41.21
74343;BME280;62767;50.300;8.070;2024-02-04T04:18:56;100680.53;;;17.50;41.23
74343;BME280;62767;50.300;8.070;2024-02-04T04:21:23;100680.53;;;17.50;41.15
74343;BME280;62767;50.300;8.070;2024-02-04T04:23:49;100690.22;;;17.49;41.15
74343;BME280;62767;50.300;8.070;2024-02-04T04:26:15;100686.72;;;17.49;41.10
74343;BME280;62767;50.300;8.070;2024-02-04T04:28:40;100696.31;;;17.50;41.20
74343;BME280;62767;50.300;8.070;2024-02-04T04:31:06;100703.38;;;17.49;41.20
74343;BME280;62767;50.300;8.070;2024-02-04T04:33:31;100688.41;;;17.50;41.24
74343;BME280;62767;50.300;8.070;2024-02-04T04:35:57;100685.88;;;17.48;41.11
74343;BME280;62767;50.300;8.070;2024-02-04T04:38:22;100696.31;;;17.50;41.28
74343;BME280;62767;50.300;8.070;2024-02-04T04:40:48;100695.47;;;17.49;41.21
74343;BME280;62767;50.300;8.070;2024-02-04T04:43:13;100690.31;;;17.48;41.14
74343;BME280;62767;50.300;8.070;2024-02-04T04:45:40;100681.56;;;17.47;41.04
74343;BME280;62767;50.300;8.070;2024-02-04T04:48:06;100682.41;;;17.48;41.20
74343;BME280;62767;50.300;8.070;2024-02-04T04:50:33;100692.09;;;17.47;41.08
74343;BME280;62767;50.300;8.070;2024-02-04T04:52:59;100694.72;;;17.47;41.14
74343;BME280;62767;50.300;8.070;2024-02-04T04:55:24;100697.38;;;17.47;41.17
74343;BME280;62767;50.300;8.070;2024-02-04T04:57:50;100694.72;;;17.47;41.21
74343;BME280;62767;50.300;8.070;2024-02-04T05:00:17;100686.00;;;17.47;41.23
74343;BME280;62767;50.300;8.070;2024-02-04T05:02:43;100693.06;;;17.46;41.28
74343;BME280;62767;50.300;8.070;2024-02-04T05:05:13;100675.47;;;17.47;41.22
74343;BME280;62767;50.300;8.070;2024-02-04T05:07:39;100686.00;;;17.47;41.12
74343;BME280;62767;50.300;8.070;2024-02-04T05:10:05;100687.78;;;17.46;41.15
74343;BME280;62767;50.300;8.070;2024-02-04T05:12:32;100692.22;;;17.46;41.07
74343;BME280;62767;50.300;8.070;2024-02-04T05:14:58;100682.66;;;17.45;41.22
74343;BME280;62767;50.300;8.070;2024-02-04T05:17:24;100687.78;;;17.46;41.11
74343;BME280;62767;50.300;8.070;2024-02-04T05:19:49;100691.38;;;17.45;41.14
74343;BME280;62767;50.300;8.070;2024-02-04T05:22:15;100687.91;;;17.45;41.05
74343;BME280;62767;50.300;8.070;2024-02-04T05:24:41;100703.72;;;17.45;41.37
74343;BME280;62767;50.300;8.070;2024-02-04T05:27:06;100713.41;;;17.44;41.14
74343;BME280;62767;50.300;8.070;2024-02-04T05:29:32;100718.53;;;17.46;41.04
74343;BME280;62767;50.300;8.070;2024-02-04T05:31:57;100698.44;;;17.45;41.15
74343;BME280;62767;50.300;8.070;2024-02-04T05:34:23;100692.34;;;17.44;41.29
74343;BME280;62767;50.300;8.070;2024-02-04T05:36:48;100701.19;;;17.43;41.21
74343;BME280;62767;50.300;8.070;2024-02-04T05:39:16;100699.41;;;17.44;41.13
74343;BME280;62767;50.300;8.070;2024-02-04T05:41:42;100699.41;;;17.44;40.84
74343;BME280;62767;50.300;8.070;2024-02-04T05:44:08;100695.91;;;17.43;41.30
74343;BME280;62767;50.300;8.070;2024-02-04T05:46:35;100687.19;;;17.43;41.31
74343;BME280;62767;50.300;8.070;2024-02-04T05:49:01;100681.91;;;17.43;41.14
74343;BME280;62767;50.300;8.070;2024-02-04T05:51:27;100688.88;;;17.44;41.19
74343;BME280;62767;50.300;8.070;2024-02-04T05:53:52;100695.06;;;17.43;41.27
74343;BME280;62767;50.300;8.070;2024-02-04T05:56:19;100694.22;;;17.42;41.17
74343;BME280;62767;50.300;8.070;2024-02-04T05:58:46;100691.59;;;17.42;41.11
74343;BME280;62767;50.300;8.070;2024-02-04T06:01:11;100688.13;;;17.42;40.94
74343;BME280;62767;50.300;8.070;2024-02-04T06:03:37;100686.44;;;17.41;41.15
74343;BME280;62767;50.300;8.070;2024-02-04T06:06:02;100685.59;;;17.40;41.28
74343;BME280;62767;50.300;8.070;2024-02-04T06:08:28;100688.13;;;17.42;41.17
74343;BME280;62767;50.300;8.070;2024-02-04T06:10:53;100689.06;;;17.41;41.16
74343;BME280;62767;50.300;8.070;2024-02-04T06:13:18;100684.66;;;17.41;40.99
74343;BME280;62767;50.300;8.070;2024-02-04T06:15:44;100679.41;;;17.41;41.17
74343;BME280;62767;50.300;8.070;2024-02-04T06:18:09;100682.97;;;17.40;41.22
74343;BME280;62767;50.300;8.070;2024-02-04T06:20:35;100689.06;;;17.41;41.15
74343;BME280;62767;50.300;8.070;2024-02-04T06:23:00;100678.56;;;17.41;41.28
74343;BME280;62767;50.300;8.070;2024-02-04T06:25:26;100675.06;;;17.40;41.19
74343;BME280;62767;50.300;8.070;2024-02-04T06:27:51;100678.56;;;17.41;41.20
74343;BME280;62767;50.300;8.070;2024-02-04T06:30:17;100673.44;;;17.39;41.18
74343;BME280;62767;50.300;8.070;2024-02-04T06:32:43;100671.59;;;17.40;41.11
74343;BME280;62767;50.300;8.070;2024-02-04T06:35:08;100683.94;;;17.39;41.20
74343;BME280;62767;50.300;8.070;2024-02-04T06:37:33;100676.06;;;17.39;41.07
74343;BME280;62767;50.300;8.070;2024-02-04T06:39:59;100678.69;;;17.39;41.17
74343;BME280;62767;50.300;8.070;2024-02-04T06:42:25;100673.44;;;17.39;41.17
74343;BME280;62767;50.300;8.070;2024-02-04T06:44:50;100677.84;;;17.39;41.10
74343;BME280;62767;50.300;8.070;2024-02-04T06:47:15;100674.38;;;17.38;41.11
74343;BME280;62767;50.300;8.070;2024-02-04T06:49:44;100663.84;;;17.38;41.13
74343;BME280;62767;50.300;8.070;2024-02-04T06:52:13;100669.09;;;17.38;41.08
74343;BME280;62767;50.300;8.070;2024-02-04T06:54:38;100658.59;;;17.38;41.11
74343;BME280;62767;50.300;8.070;2024-02-04T06:57:04;100663.84;;;17.38;41.07
74343;BME280;62767;50.300;8.070;2024-02-04T06:59:29;100666.47;;;17.38;41.18
74343;BME280;62767;50.300;8.070;2024-02-04T07:01:55;100684.91;;;17.38;41.24
74343;BME280;62767;50.300;8.070;2024-02-04T07:04:20;100675.31;;;17.37;41.23
74343;BME280;62767;50.300;8.070;2024-02-04T07:06:52;100669.22;;;17.37;41.22
74343;BME280;62767;50.300;8.070;2024-02-04T07:09:18;100670.91;;;17.38;41.20
74343;BME280;62767;50.300;8.070;2024-02-04T07:11:43;100668.38;;;17.36;41.23
74343;BME280;62767;50.300;8.070;2024-02-04T07:14:09;100678.06;;;17.36;41.22
74343;BME280;62767;50.300;8.070;2024-02-04T07:16:34;100677.94;;;17.37;41.15
74343;BME280;62767;50.300;8.070;2024-02-04T07:19:00;100676.25;;;17.36;41.12
74343;BME280;62767;50.300;8.070;2024-02-04T07:21:25;100669.22;;;17.37;41.16
74343;BME280;62767;50.300;8.070;2024-02-04T07:23:51;100670.16;;;17.36;41.20
74343;BME280;62767;50.300;8.070;2024-02-04T07:26:16;100664.06;;;17.35;41.19
74343;BME280;62767;50.300;8.070;2024-02-04T07:28:42;100665.75;;;17.36;41.01
74343;BME280;62767;50.300;8.070;2024-02-04T07:31:07;100669.22;;;17.37;41.25
74343;BME280;62767;50.300;8.070;2024-02-04T07:33:33;100678.06;;;17.36;41.15
74343;BME280;62767;50.300;8.070;2024-02-04T07:35:58;100672.78;;;17.36;41.09
74343;BME280;62767;50.300;8.070;2024-02-04T07:38:24;100664.06;;;17.35;41.25
74343;BME280;62767;50.300;8.070;2024-02-04T07:40:49;100674.59;;;17.35;41.19
74343;BME280;62767;50.300;8.070;2024-02-04T07:43:15;100673.75;;;17.35;41.13
74343;BME280;62767;50.300;8.070;2024-02-04T07:45:40;100681.63;;;17.35;41.09
74343;BME280;62767;50.300;8.070;2024-02-04T07:48:07;100696.56;;;17.34;41.13
74343;BME280;62767;50.300;8.070;2024-02-04T07:50:34;100686.91;;;17.35;41.15
74343;BME280;62767;50.300;8.070;2024-02-04T07:53:00;100693.09;;;17.34;41.07
74343;BME280;62767;50.300;8.070;2024-02-04T07:55:25;100682.47;;;17.35;41.09
74343;BME280;62767;50.300;8.070;2024-02-04T07:57:51;100676.38;;;17.35;41.20
74343;BME280;62767;50.300;8.070;2024-02-04T08:00:17;100684.16;;;17.36;41.19
74343;BME280;62767;50.300;8.070;2024-02-04T08:02:44;100662.28;;;17.36;41.14
74343;BME280;62767;50.300;8.070;2024-02-04T08:05:09;100674.59;;;17.35;41.13
74343;BME280;62767;50.300;8.070;2024-02-04T08:07:35;100664.16;;;17.34;41.14
74343;BME280;62767;50.300;8.070;2024-02-04T08:10:00;100652.69;;;17.35;41.09
74343;BME280;62767;50.300;8.070;2024-02-04T08:12:26;100650.06;;;17.35;41.16
74343;BME280;62767;50.300;8.070;2024-02-04T08:14:51;100651.84;;;17.34;41.12
74343;BME280;62767;50.300;8.070;2024-02-04T08:17:17;100664.91;;;17.36;41.15
74343;BME280;62767;50.300;8.070;2024-02-04T08:19:42;100666.69;;;17.35;41.13
74343;BME280;62767;50.300;8.070;2024-02-04T08:22:08;100668.47;;;17.35;41.34
74343;BME280;62767;50.300;8.070;2024-02-04T08:24:34;100664.06;;;17.35;41.01
74343;BME280;62767;50.300;8.070;2024-02-04T08:27:00;100666.69;;;17.35;41.08
74343;BME280;62767;50.300;8.070;2024-02-04T08:29:25;100663.22;;;17.35;41.12
74343;BME280;62767;50.300;8.070;2024-02-04T08:31:54;100669.44;;;17.34;41.27
74343;BME280;62767;50.300;8.070;2024-02-04T08:34:19;100672.78;;;17.36;41.11
74343;BME280;62767;50.300;8.070;2024-02-04T08:36:46;100679.00;;;17.35;41.14
74343;BME280;62767;50.300;8.070;2024-02-04T08:39:12;100673.75;;;17.35;41.05
74343;BME280;62767;50.300;8.070;2024-02-04T08:41:37;100671.09;;;17.35;40.99
74343;BME280;62767;50.300;8.070;2024-02-04T08:44:03;100659.63;;;17.36;40.95
74343;BME280;62767;50.300;8.070;2024-02-04T08:46:29;100651.84;;;17.34;41.02
74343;BME280;62767;50.300;8.070;2024-02-04T08:48:55;100643.94;;;17.34;41.09
74343;BME280;62767;50.300;8.070;2024-02-04T08:51:21;100655.31;;;17.35;40.95
74343;BME280;62767;50.300;8.070;2024-02-04T08:53:46;100657.94;;;17.35;41.02
74343;BME280;62767;50.300;8.070;2024-02-04T08:56:12;100676.38;;;17.35;41.05
74343;BME280;62767;50.300;8.070;2024-02-04T08:58:37;100662.38;;;17.34;41.11
74343;BME280;62767;50.300;8.070;2024-02-04T09:01:06;100659.75;;;17.34;41.02
74343;BME280;62767;50.300;8.070;2024-02-04T09:03:32;100663.22;;;17.35;41.10
74343;BME280;62767;50.300;8.070;2024-02-04T09:05:58;100673.75;;;17.35;41.16
74343;BME280;62767;50.300;8.070;2024-02-04T09:08:24;100656.28;;;17.34;41.07
74343;BME280;62767;50.300;8.070;2024-02-04T09:10:49;100658.91;;;17.34;41.02
74343;BME280;62767;50.300;8.070;2024-02-04T09:13:15;100661.53;;;17.34;40.96
74343;BME280;62767;50.300;8.070;2024-02-04T09:15:40;100663.22;;;17.35;41.04
74343;BME280;62767;50.300;8.070;2024-02-04T09:18:06;100665.84;;;17.35;41.01
74343;BME280;62767;50.300;8.070;2024-02-04T09:20:31;100665.00;;;17.34;41.05
74343;BME280;62767;50.300;8.070;2024-02-04T09:22:57;100664.16;;;17.34;41.12
74343;BME280;62767;50.300;8.070;2024-02-04T09:25:24;100665.84;;;17.35;40.95
74343;BME280;62767;50.300;8.070;2024-02-04T09:27:50;100661.53;;;17.34;41.06
74343;BME280;62767;50.300;8.070;2024-02-04T09:30:15;100663.22;;;17.35;40.90
74343;BME280;62767;50.300;8.070;2024-02-04T09:32:41;100657.09;;;17.34;41.05
74343;BME280;62767;50.300;8.070;2024-02-04T09:35:07;100658.78;;;17.35;41.02
74343;BME280;62767;50.300;8.070;2024-02-04T09:37:34;100660.59;;;17.35;40.96
74343;BME280;62767;50.300;8.070;2024-02-04T09:40:00;100657.94;;;17.35;41.03
74343;BME280;62767;50.300;8.070;2024-02-04T09:42:25;100646.47;;;17.36;40.98
74343;BME280;62767;50.300;8.070;2024-02-04T09:44:53;100643.84;;;17.36;41.05
74343;BME280;62767;50.300;8.070;2024-02-04T09:47:20;100635.13;;;17.35;41.04
74343;BME280;62767;50.300;8.070;2024-02-04T09:49:45;100653.53;;;17.35;40.95
74343;BME280;62767;50.300;8.070;2024-02-04T09:52:12;100647.44;;;17.35;40.98
74343;BME280;62767;50.300;8.070;2024-02-04T09:54:48;100670.25;;;17.34;40.99
74343;BME280;62767;50.300;8.070;2024-02-04T09:57:15;100665.84;;;17.35;41.11
74343;BME280;62767;50.300;8.070;2024-02-04T09:59:44;100671.09;;;17.35;41.07
74343;BME280;62767;50.300;8.070;2024-02-04T10:02:10;100660.72;;;17.33;41.01
74343;BME280;62767;50.300;8.070;2024-02-04T10:04:35;100664.16;;;17.34;40.96
74343;BME280;62767;50.300;8.070;2024-02-04T10:07:02;100673.75;;;17.35;41.00
74343;BME280;62767;50.300;8.070;2024-02-04T10:09:27;100675.53;;;17.34;41.02
74343;BME280;62767;50.300;8.070;2024-02-04T10:11:53;100670.25;;;17.34;41.02
74343;BME280;62767;50.300;8.070;2024-02-04T10:14:18;100677.22;;;17.35;41.04
74343;BME280;62767;50.300;8.070;2024-02-04T10:16:45;100668.47;;;17.35;40.99
74343;BME280;62767;50.300;8.070;2024-02-04T10:19:11;100673.75;;;17.35;40.95
74343;BME280;62767;50.300;8.070;2024-02-04T10:21:37;100675.44;;;17.36;41.01
74343;BME280;62767;50.300;8.070;2024-02-04T10:24:06;100679.00;;;17.35;40.91
74343;BME280;62767;50.300;8.070;2024-02-04T10:26:32;100694.78;;;17.35;40.94
74343;BME280;62767;50.300;8.070;2024-02-04T10:29:00;100679.84;;;17.35;41.08
74343;BME280;62767;50.300;8.070;2024-02-04T10:31:26;100679.00;;;17.35;40.92
74343;BME280;62767;50.300;8.070;2024-02-04T10:33:52;100676.38;;;17.35;41.06
74343;BME280;62767;50.300;8.070;2024-02-04T10:36:18;100665.84;;;17.35;41.09
74343;BME280;62767;50.300;8.070;2024-02-04T10:38:43;100652.69;;;17.35;41.05
74343;BME280;62767;50.300;8.070;2024-02-04T10:41:14;100664.06;;;17.35;40.94
74343;BME280;62767;50.300;8.070;2024-02-04T10:43:42;100662.38;;;17.34;40.92
74343;BME280;62767;50.300;8.070;2024-02-04T10:46:13;100668.47;;;17.35;40.95
74343;BME280;62767;50.300;8.070;2024-02-04T10:48:42;100653.63;;;17.34;40.90
74343;BME280;62767;50.300;8.070;2024-02-04T10:51:15;100651.84;;;17.34;41.05
74343;BME280;62767;50.300;8.070;2024-02-04T10:53:42;100655.31;;;17.35;40.87
74343;BME280;62767;50.300;8.070;2024-02-04T10:56:14;100653.63;;;17.34;41.04
74343;BME280;62767;50.300;8.070;2024-02-04T10:58:43;100639.53;;;17.35;40.92
74343;BME280;62767;50.300;8.070;2024-02-04T11:01:10;100640.47;;;17.34;41.02
74343;BME280;62767;50.300;8.070;2024-02-04T11:03:36;100619.31;;;17.35;40.94
74343;BME280;62767;50.300;8.070;2024-02-04T11:06:04;100624.59;;;17.35;41.03
74343;BME280;62767;50.300;8.070;2024-02-04T11:08:29;100628.16;;;17.34;40.98
74343;BME280;62767;50.300;8.070;2024-02-04T11:10:55;100629.84;;;17.35;41.08
74343;BME280;62767;50.300;8.070;2024-02-04T11:13:22;100639.53;;;17.35;40.95
74343;BME280;62767;50.300;8.070;2024-02-04T11:15:49;100631.63;;;17.35;41.00
74343;BME280;62767;50.300;8.070;2024-02-04T11:18:34;100633.31;;;17.36;40.97
74343;BME280;62767;50.300;8.070;2024-02-04T11:26:27;100621.97;;;17.35;40.92
74343;BME280;62767;50.300;8.070;2024-02-04T11:28:53;100642.16;;;17.35;41.00
74343;BME280;62767;50.300;8.070;2024-02-04T11:31:19;100632.47;;;17.35;40.98
74343;BME280;62767;50.300;8.070;2024-02-04T11:33:45;100615.00;;;17.34;41.06
74343;BME280;62767;50.300;8.070;2024-02-04T11:36:15;100625.44;;;17.36;41.05
74343;BME280;62767;50.300;8.070;2024-02-04T11:38:43;100636.91;;;17.35;40.98
74343;BME280;62767;50.300;8.070;2024-02-04T11:41:21;100643.00;;;17.35;41.03
74343;BME280;62767;50.300;8.070;2024-02-04T11:43:52;100627.22;;;17.35;40.93
74343;BME280;62767;50.300;8.070;2024-02-04T11:46:19;100623.75;;;17.35;40.91
74343;BME280;62767;50.300;8.070;2024-02-04T11:48:51;100600.06;;;17.35;41.10
74343;BME280;62767;50.300;8.070;2024-02-04T11:51:17;100607.13;;;17.34;40.89
74343;BME280;62767;50.300;8.070;2024-02-04T11:53:42;100592.19;;;17.35;40.96
74343;BME280;62767;50.300;8.070;2024-02-04T11:56:08;100601.84;;;17.34;40.92
74343;BME280;62767;50.300;8.070;2024-02-04T11:58:34;100595.75;;;17.34;40.93
74343;BME280;62767;50.300;8.070;2024-02-04T12:01:01;100594.81;;;17.35;40.99
74343;BME280;62767;50.300;8.070;2024-02-04T12:03:33;100583.44;;;17.34;41.01
74343;BME280;62767;50.300;8.070;2024-02-04T12:05:59;100588.69;;;17.34;40.91
74343;BME280;62767;50.300;8.070;2024-02-04T12:08:26;100587.75;;;17.35;41.11
74343;BME280;62767;50.300;8.070;2024-02-04T12:10:53;100597.44;;;17.35;41.04
74343;BME280;62767;50.300;8.070;2024-02-04T12:13:19;100600.91;;;17.35;41.05
74343;BME280;62767;50.300;8.070;2024-02-04T12:15:46;100595.66;;;17.35;40.95
74343;BME280;62767;50.300;8.070;2024-02-04T12:18:12;100580.69;;;17.36;40.97
74343;BME280;62767;50.300;8.070;2024-02-04T12:20:39;100576.28;;;17.36;41.03
74343;BME280;62767;50.300;8.070;2024-02-04T12:23:06;100578.91;;;17.36;41.07
74343;BME280;62767;50.300;8.070;2024-02-04T12:25:32;100571.97;;;17.35;41.02
74343;BME280;62767;50.300;8.070;2024-02-04T12:27:59;100575.44;;;17.36;40.83
74343;BME280;62767;50.300;8.070;2024-02-04T12:30:26;100585.97;;;17.36;41.04
74343;BME280;62767;50.300;8.070;2024-02-04T12:32:59;100577.22;;;17.35;40.93
74343;BME280;62767;50.300;8.070;2024-02-04T12:35:25;100579.97;;;17.34;41.11
74343;BME280;62767;50.300;8.070;2024-02-04T12:37:52;100550.91;;;17.35;40.95
74343;BME280;62767;50.300;8.070;2024-02-04T12:40:24;100557.03;;;17.36;40.90
74343;BME280;62767;50.300;8.070;2024-02-04T12:42:54;100543.88;;;17.36;41.03
74343;BME280;62767;50.300;8.070;2024-02-04T12:45:21;100553.44;;;17.37;40.88
74343;BME280;62767;50.300;8.070;2024-02-04T12:47:51;100551.75;;;17.36;40.98
74343;BME280;62767;50.300;8.070;2024-02-04T12:50:17;100532.50;;;17.35;40.99
74343;BME280;62767;50.300;8.070;2024-02-04T12:52:47;100552.59;;;17.36;41.07
74343;BME280;62767;50.300;8.070;2024-02-04T12:55:40;100544.72;;;17.36;41.02